sensor_id;sensor_type;location;lat;lon;timestamp;temperature;humidity
580;DHT22;276;48.392;9.950;2022-07-03T00:00:11;19.00;99.50
580;DHT22;276;48.392;9.950;2022-07-03T00:02:37;19.00;99.60
580;DHT22;276;48.392;9.950;2022-07-03T00:05:05;18.90;99.50
580;DHT22;276;48.392;9.950;2022-07-03T00:07:31;19.00;99.50
580;DHT22;276;48.392;9.950;2022-07-03T00:09:57;18.90;99.40
580;DHT22;276;48.392;9.950;2022-07-03T00:12:22;18.90;99.70
580;DHT22;276;48.392;9.950;2022-07-03T00:14:50;18.80;99.70
580;DHT22;276;48.392;9.950;2022-07-03T00:17:17;18.80;99.80
580;DHT22;276;48.392;9.950;2022-07-03T00:19:45;18.80;99.80
580;DHT22;276;48.392;9.950;2022-07-03T00:22:16;18.80;99.70
580;DHT22;276;48.392;9.950;2022-07-03T00:27:15;18.80;99.60
580;DHT22;276;48.392;9.950;2022-07-03T00:29:42;18.70;99.60
580;DHT22;276;48.392;9.950;2022-07-03T00:32:14;18.80;99.60
580;DHT22;276;48.392;9.950;2022-07-03T00:34:47;18.70;99.60
580;DHT22;276;48.392;9.950;2022-07-03T00:37:17;18.70;99.50
580;DHT22;276;48.392;9.950;2022-07-03T00:39:44;18.70;99.60
580;DHT22;276;48.392;9.950;2022-07-03T00:42:12;18.70;99.70
580;DHT22;276;48.392;9.950;2022-07-03T00:44:47;18.60;99.90
580;DHT22;276;48.392;9.950;2022-07-03T00:47:14;18.60;99.70
580;DHT22;276;48.392;9.950;2022-07-03T00:49:45;18.60;99.80
580;DHT22;276;48.392;9.950;2022-07-03T00:52:13;18.50;99.90
580;DHT22;276;48.392;9.950;2022-07-03T00:54:44;18.50;99.80
580;DHT22;276;48.392;9.950;2022-07-03T00:57:14;18.50;99.90
580;DHT22;276;48.392;9.950;2022-07-03T00:59:41;18.40;99.90
580;DHT22;276;48.392;9.950;2022-07-03T01:02:13;18.40;99.90
580;DHT22;276;48.392;9.950;2022-07-03T01:04:51;18.40;99.90
580;DHT22;276;48.392;9.950;2022-07-03T01:07:46;18.30;99.90
580;DHT22;276;48.392;9.950;2022-07-03T01:21:34;18.30;99.90
580;DHT22;276;48.392;9.950;2022-07-03T01:26:47;18.20;99.90
580;DHT22;276;48.392;9.950;2022-07-03T01:29:32;18.20;99.90
580;DHT22;276;48.392;9.950;2022-07-03T01:32:03;18.20;99.90
580;DHT22;276;48.392;9.950;2022-07-03T01:34:34;18.10;99.90
580;DHT22;276;48.392;9.950;2022-07-03T01:37:03;18.10;99.90
580;DHT22;276;48.392;9.950;2022-07-03T01:39:30;18.10;99.90
580;DHT22;276;48.392;9.950;2022-07-03T01:42:02;18.10;99.90
580;DHT22;276;48.392;9.950;2022-07-03T01:44:28;18.10;99.90
580;DHT22;276;48.392;9.950;2022-07-03T01:46:59;18.10;99.90
580;DHT22;276;48.392;9.950;2022-07-03T01:49:26;18.10;99.90
580;DHT22;276;48.392;9.950;2022-07-03T01:51:53;18.00;99.90
580;DHT22;276;48.392;9.950;2022-07-03T01:54:20;18.10;99.90
580;DHT22;276;48.392;9.950;2022-07-03T01:56:49;18.10;99.90
580;DHT22;276;48.392;9.950;2022-07-03T01:59:17;18.00;99.90
580;DHT22;276;48.392;9.950;2022-07-03T02:02:09;18.00;99.90
580;DHT22;276;48.392;9.950;2022-07-03T02:07:08;18.00;99.90
580;DHT22;276;48.392;9.950;2022-07-03T02:09:49;17.90;99.90
580;DHT22;276;48.392;9.950;2022-07-03T02:12:18;17.90;99.90
580;DHT22;276;48.392;9.950;2022-07-03T02:15:05;17.90;99.90
580;DHT22;276;48.392;9.950;2022-07-03T02:17:42;17.80;99.90
580;DHT22;276;48.392;9.950;2022-07-03T02:20:10;17.80;99.90
580;DHT22;276;48.392;9.950;2022-07-03T02:23:02;17.80;99.90
580;DHT22;276;48.392;9.950;2022-07-03T02:25:37;17.80;99.90
580;DHT22;276;48.392;9.950;2022-07-03T02:30:44;17.80;99.90
580;DHT22;276;48.392;9.950;2022-07-03T02:33:21;17.80;99.90
580;DHT22;276;48.392;9.950;2022-07-03T02:35:53;17.80;99.90
580;DHT22;276;48.392;9.950;2022-07-03T02:38:24;17.70;99.90
580;DHT22;276;48.392;9.950;2022-07-03T02:41:21;17.70;99.90
580;DHT22;276;48.392;9.950;2022-07-03T02:55:11;17.70;99.90
580;DHT22;276;48.392;9.950;2022-07-03T02:57:42;17.60;99.90
580;DHT22;276;48.392;9.950;2022-07-03T03:00:12;17.60;99.90
580;DHT22;276;48.392;9.950;2022-07-03T03:10:28;17.50;99.90
580;DHT22;276;48.392;9.950;2022-07-03T03:13:09;17.50;99.90
580;DHT22;276;48.392;9.950;2022-07-03T03:15:37;17.50;99.90
580;DHT22;276;48.392;9.950;2022-07-03T03:18:05;17.50;99.90
580;DHT22;276;48.392;9.950;2022-07-03T03:20:36;17.40;99.90
580;DHT22;276;48.392;9.950;2022-07-03T03:25:45;17.40;99.90
580;DHT22;276;48.392;9.950;2022-07-03T03:28:13;17.40;99.90
580;DHT22;276;48.392;9.950;2022-07-03T03:30:39;17.40;99.90
580;DHT22;276;48.392;9.950;2022-07-03T03:33:07;17.40;99.90
580;DHT22;276;48.392;9.950;2022-07-03T03:35:37;17.40;99.90
580;DHT22;276;48.392;9.950;2022-07-03T03:38:03;17.40;99.90
580;DHT22;276;48.392;9.950;2022-07-03T03:40:32;17.40;99.90
580;DHT22;276;48.392;9.950;2022-07-03T03:43:03;17.30;99.90
580;DHT22;276;48.392;9.950;2022-07-03T03:45:32;17.40;99.90
580;DHT22;276;48.392;9.950;2022-07-03T03:47:58;17.40;99.90
580;DHT22;276;48.392;9.950;2022-07-03T03:50:23;17.40;99.90
580;DHT22;276;48.392;9.950;2022-07-03T03:52:50;17.40;99.90
580;DHT22;276;48.392;9.950;2022-07-03T03:55:18;17.40;99.90
580;DHT22;276;48.392;9.950;2022-07-03T03:57:43;17.50;99.90
580;DHT22;276;48.392;9.950;2022-07-03T04:00:12;17.50;99.90
580;DHT22;276;48.392;9.950;2022-07-03T04:02:38;17.50;99.90
580;DHT22;276;48.392;9.950;2022-07-03T04:05:07;17.50;99.90
580;DHT22;276;48.392;9.950;2022-07-03T04:07:32;17.50;99.90
580;DHT22;276;48.392;9.950;2022-07-03T04:09:58;17.50;99.90
580;DHT22;276;48.392;9.950;2022-07-03T04:12:26;17.50;99.90
580;DHT22;276;48.392;9.950;2022-07-03T04:14:59;17.60;99.90
580;DHT22;276;48.392;9.950;2022-07-03T04:17:25;17.60;99.90
580;DHT22;276;48.392;9.950;2022-07-03T04:19:50;17.60;99.90
580;DHT22;276;48.392;9.950;2022-07-03T04:22:16;17.60;99.90
580;DHT22;276;48.392;9.950;2022-07-03T04:24:44;17.60;99.90
580;DHT22;276;48.392;9.950;2022-07-03T04:27:09;17.70;99.90
580;DHT22;276;48.392;9.950;2022-07-03T04:29:35;17.70;99.90
580;DHT22;276;48.392;9.950;2022-07-03T04:32:00;17.80;99.90
580;DHT22;276;48.392;9.950;2022-07-03T04:34:28;17.80;99.90
580;DHT22;276;48.392;9.950;2022-07-03T04:36:56;17.90;99.90
580;DHT22;276;48.392;9.950;2022-07-03T04:39:22;17.90;99.90
580;DHT22;276;48.392;9.950;2022-07-03T04:41:48;18.00;99.90
580;DHT22;276;48.392;9.950;2022-07-03T04:44:13;18.10;99.90
580;DHT22;276;48.392;9.950;2022-07-03T04:46:39;18.20;99.90
580;DHT22;276;48.392;9.950;2022-07-03T04:49:07;18.20;99.90
580;DHT22;276;48.392;9.950;2022-07-03T04:51:33;18.30;99.90
580;DHT22;276;48.392;9.950;2022-07-03T04:53:59;18.40;99.90
580;DHT22;276;48.392;9.950;2022-07-03T04:56:24;18.50;99.90
580;DHT22;276;48.392;9.950;2022-07-03T04:58:53;18.50;99.90
580;DHT22;276;48.392;9.950;2022-07-03T05:01:21;18.60;99.90
580;DHT22;276;48.392;9.950;2022-07-03T05:03:49;18.60;99.90
580;DHT22;276;48.392;9.950;2022-07-03T05:06:19;18.70;99.90
580;DHT22;276;48.392;9.950;2022-07-03T05:08:47;18.70;99.90
580;DHT22;276;48.392;9.950;2022-07-03T05:11:12;18.80;99.90
580;DHT22;276;48.392;9.950;2022-07-03T05:13:40;18.90;99.90
580;DHT22;276;48.392;9.950;2022-07-03T05:16:06;19.00;99.90
580;DHT22;276;48.392;9.950;2022-07-03T05:18:34;19.00;99.90
580;DHT22;276;48.392;9.950;2022-07-03T05:21:03;19.10;99.90
580;DHT22;276;48.392;9.950;2022-07-03T05:23:28;19.10;99.90
580;DHT22;276;48.392;9.950;2022-07-03T05:25:56;19.20;99.90
580;DHT22;276;48.392;9.950;2022-07-03T05:28:24;19.30;99.90
580;DHT22;276;48.392;9.950;2022-07-03T05:30:52;19.40;99.90
580;DHT22;276;48.392;9.950;2022-07-03T05:33:20;19.50;99.90
580;DHT22;276;48.392;9.950;2022-07-03T05:35:48;19.60;99.90
580;DHT22;276;48.392;9.950;2022-07-03T05:38:16;19.60;99.90
580;DHT22;276;48.392;9.950;2022-07-03T05:41:04;19.70;99.90
580;DHT22;276;48.392;9.950;2022-07-03T05:43:32;19.80;99.90
580;DHT22;276;48.392;9.950;2022-07-03T05:46:00;19.90;99.90
580;DHT22;276;48.392;9.950;2022-07-03T05:48:26;20.00;99.90
580;DHT22;276;48.392;9.950;2022-07-03T05:50:51;20.10;99.80
580;DHT22;276;48.392;9.950;2022-07-03T05:53:17;20.20;99.70
580;DHT22;276;48.392;9.950;2022-07-03T05:55:45;20.30;99.70
580;DHT22;276;48.392;9.950;2022-07-03T05:58:11;20.40;99.70
580;DHT22;276;48.392;9.950;2022-07-03T06:00:37;20.40;99.60
580;DHT22;276;48.392;9.950;2022-07-03T06:03:05;20.50;99.60
580;DHT22;276;48.392;9.950;2022-07-03T06:05:30;20.60;99.60
580;DHT22;276;48.392;9.950;2022-07-03T06:07:57;20.70;99.60
580;DHT22;276;48.392;9.950;2022-07-03T06:10:23;20.80;99.50
580;DHT22;276;48.392;9.950;2022-07-03T06:12:49;20.90;99.50
580;DHT22;276;48.392;9.950;2022-07-03T06:15:15;21.00;99.50
580;DHT22;276;48.392;9.950;2022-07-03T06:17:40;21.10;99.60
580;DHT22;276;48.392;9.950;2022-07-03T06:20:06;21.20;99.50
580;DHT22;276;48.392;9.950;2022-07-03T06:22:33;21.40;99.40
580;DHT22;276;48.392;9.950;2022-07-03T06:24:59;21.50;99.50
580;DHT22;276;48.392;9.950;2022-07-03T06:27:27;21.60;99.50
580;DHT22;276;48.392;9.950;2022-07-03T06:29:53;21.60;99.20
580;DHT22;276;48.392;9.950;2022-07-03T06:32:21;21.60;99.20
580;DHT22;276;48.392;9.950;2022-07-03T06:34:47;21.60;99.20
580;DHT22;276;48.392;9.950;2022-07-03T06:37:18;21.60;99.50
580;DHT22;276;48.392;9.950;2022-07-03T06:39:45;21.50;99.20
580;DHT22;276;48.392;9.950;2022-07-03T06:42:11;21.50;99.50
580;DHT22;276;48.392;9.950;2022-07-03T06:44:37;21.50;99.60
580;DHT22;276;48.392;9.950;2022-07-03T06:47:02;21.50;99.90
580;DHT22;276;48.392;9.950;2022-07-03T06:49:32;21.50;99.90
580;DHT22;276;48.392;9.950;2022-07-03T06:51:58;21.50;99.90
580;DHT22;276;48.392;9.950;2022-07-03T06:54:23;21.50;99.90
580;DHT22;276;48.392;9.950;2022-07-03T06:56:51;21.60;99.90
580;DHT22;276;48.392;9.950;2022-07-03T06:59:17;21.70;99.90
580;DHT22;276;48.392;9.950;2022-07-03T07:01:45;21.80;99.90
580;DHT22;276;48.392;9.950;2022-07-03T07:04:11;21.90;99.90
580;DHT22;276;48.392;9.950;2022-07-03T07:06:37;21.90;99.90
580;DHT22;276;48.392;9.950;2022-07-03T07:09:03;21.90;99.90
580;DHT22;276;48.392;9.950;2022-07-03T07:11:29;21.90;99.90
580;DHT22;276;48.392;9.950;2022-07-03T07:13:55;21.90;99.90
580;DHT22;276;48.392;9.950;2022-07-03T07:16:20;22.00;99.90
580;DHT22;276;48.392;9.950;2022-07-03T07:18:46;22.10;99.90
580;DHT22;276;48.392;9.950;2022-07-03T07:21:14;22.20;99.90
580;DHT22;276;48.392;9.950;2022-07-03T07:23:42;22.20;99.90
580;DHT22;276;48.392;9.950;2022-07-03T07:26:08;22.40;99.90
580;DHT22;276;48.392;9.950;2022-07-03T07:28:33;22.50;99.70
580;DHT22;276;48.392;9.950;2022-07-03T07:31:02;22.60;99.30
580;DHT22;276;48.392;9.950;2022-07-03T07:33:33;22.70;99.60
580;DHT22;276;48.392;9.950;2022-07-03T07:35:58;22.80;99.80
580;DHT22;276;48.392;9.950;2022-07-03T07:38:24;22.90;99.00
580;DHT22;276;48.392;9.950;2022-07-03T07:40:50;23.00;99.30
580;DHT22;276;48.392;9.950;2022-07-03T07:43:15;23.00;99.50
580;DHT22;276;48.392;9.950;2022-07-03T07:45:41;23.20;99.00
580;DHT22;276;48.392;9.950;2022-07-03T07:48:06;23.20;98.70
580;DHT22;276;48.392;9.950;2022-07-03T07:50:32;23.30;99.00
580;DHT22;276;48.392;9.950;2022-07-03T07:52:58;23.30;98.90
580;DHT22;276;48.392;9.950;2022-07-03T07:55:23;23.40;98.90
580;DHT22;276;48.392;9.950;2022-07-03T07:57:51;23.40;99.00
580;DHT22;276;48.392;9.950;2022-07-03T08:00:18;23.50;98.80
580;DHT22;276;48.392;9.950;2022-07-03T08:02:45;23.60;98.40
580;DHT22;276;48.392;9.950;2022-07-03T08:05:30;23.60;99.00
580;DHT22;276;48.392;9.950;2022-07-03T08:08:21;23.80;99.20
580;DHT22;276;48.392;9.950;2022-07-03T08:10:48;24.00;98.20
580;DHT22;276;48.392;9.950;2022-07-03T08:13:16;24.00;98.70
580;DHT22;276;48.392;9.950;2022-07-03T08:15:43;24.20;97.40
580;DHT22;276;48.392;9.950;2022-07-03T08:18:12;24.30;97.60
580;DHT22;276;48.392;9.950;2022-07-03T08:20:39;24.40;96.60
580;DHT22;276;48.392;9.950;2022-07-03T08:23:05;24.30;97.40
580;DHT22;276;48.392;9.950;2022-07-03T08:25:33;24.40;97.10
580;DHT22;276;48.392;9.950;2022-07-03T08:28:01;24.40;97.30
580;DHT22;276;48.392;9.950;2022-07-03T08:30:27;24.40;97.40
580;DHT22;276;48.392;9.950;2022-07-03T08:32:55;24.40;96.40
580;DHT22;276;48.392;9.950;2022-07-03T08:35:21;24.40;96.60
580;DHT22;276;48.392;9.950;2022-07-03T08:37:50;24.50;96.40
580;DHT22;276;48.392;9.950;2022-07-03T08:40:17;24.50;96.80
580;DHT22;276;48.392;9.950;2022-07-03T08:45:19;24.70;95.90
580;DHT22;276;48.392;9.950;2022-07-03T08:47:49;24.70;95.60
580;DHT22;276;48.392;9.950;2022-07-03T08:50:18;24.80;96.00
580;DHT22;276;48.392;9.950;2022-07-03T08:52:45;24.90;95.50
580;DHT22;276;48.392;9.950;2022-07-03T08:55:12;24.90;94.90
580;DHT22;276;48.392;9.950;2022-07-03T08:57:39;24.90;95.40
580;DHT22;276;48.392;9.950;2022-07-03T09:00:14;24.90;95.50
580;DHT22;276;48.392;9.950;2022-07-03T09:02:42;25.10;94.30
580;DHT22;276;48.392;9.950;2022-07-03T09:05:12;25.30;93.70
580;DHT22;276;48.392;9.950;2022-07-03T09:07:41;25.40;93.10
580;DHT22;276;48.392;9.950;2022-07-03T09:10:11;25.40;94.00
580;DHT22;276;48.392;9.950;2022-07-03T09:12:40;25.60;93.10
580;DHT22;276;48.392;9.950;2022-07-03T09:15:09;25.80;92.10
580;DHT22;276;48.392;9.950;2022-07-03T09:17:40;25.90;92.40
580;DHT22;276;48.392;9.950;2022-07-03T09:20:10;25.90;90.90
580;DHT22;276;48.392;9.950;2022-07-03T09:22:39;26.00;92.10
580;DHT22;276;48.392;9.950;2022-07-03T09:25:08;26.20;90.40
580;DHT22;276;48.392;9.950;2022-07-03T09:27:39;26.30;90.30
580;DHT22;276;48.392;9.950;2022-07-03T09:30:13;26.40;88.80
580;DHT22;276;48.392;9.950;2022-07-03T09:32:43;26.50;89.30
580;DHT22;276;48.392;9.950;2022-07-03T09:35:25;26.50;90.10
580;DHT22;276;48.392;9.950;2022-07-03T09:37:56;26.60;89.30
580;DHT22;276;48.392;9.950;2022-07-03T09:40:25;26.60;89.10
580;DHT22;276;48.392;9.950;2022-07-03T09:45:22;26.60;87.30
580;DHT22;276;48.392;9.950;2022-07-03T09:47:50;26.60;90.10
580;DHT22;276;48.392;9.950;2022-07-03T09:50:16;26.80;86.30
580;DHT22;276;48.392;9.950;2022-07-03T09:52:46;26.90;87.10
580;DHT22;276;48.392;9.950;2022-07-03T10:00:24;27.00;83.90
580;DHT22;276;48.392;9.950;2022-07-03T10:03:06;27.00;83.00
580;DHT22;276;48.392;9.950;2022-07-03T10:05:35;27.00;83.90
580;DHT22;276;48.392;9.950;2022-07-03T10:10:34;26.90;83.80
580;DHT22;276;48.392;9.950;2022-07-03T10:13:01;26.90;84.20
580;DHT22;276;48.392;9.950;2022-07-03T10:15:28;26.90;83.30
580;DHT22;276;48.392;9.950;2022-07-03T10:17:58;26.80;81.60
580;DHT22;276;48.392;9.950;2022-07-03T10:20:31;26.90;81.30
580;DHT22;276;48.392;9.950;2022-07-03T10:23:02;27.10;81.60
580;DHT22;276;48.392;9.950;2022-07-03T10:25:33;27.10;78.80
580;DHT22;276;48.392;9.950;2022-07-03T10:28:05;27.10;82.50
580;DHT22;276;48.392;9.950;2022-07-03T10:30:34;27.20;80.90
580;DHT22;276;48.392;9.950;2022-07-03T10:33:02;27.30;82.20
580;DHT22;276;48.392;9.950;2022-07-03T10:35:53;27.30;81.30
580;DHT22;276;48.392;9.950;2022-07-03T10:38:39;27.40;78.10
580;DHT22;276;48.392;9.950;2022-07-03T10:44:01;27.60;79.10
580;DHT22;276;48.392;9.950;2022-07-03T10:46:45;27.70;80.50
580;DHT22;276;48.392;9.950;2022-07-03T10:49:14;27.80;81.60
580;DHT22;276;48.392;9.950;2022-07-03T10:54:50;28.10;77.70
580;DHT22;276;48.392;9.950;2022-07-03T10:57:20;28.30;78.20
580;DHT22;276;48.392;9.950;2022-07-03T11:15:52;28.60;72.50
580;DHT22;276;48.392;9.950;2022-07-03T11:25:56;28.50;71.80
580;DHT22;276;48.392;9.950;2022-07-03T11:41:28;28.40;72.40
580;DHT22;276;48.392;9.950;2022-07-03T11:44:02;28.40;72.00
580;DHT22;276;48.392;9.950;2022-07-03T11:46:30;28.40;72.20
580;DHT22;276;48.392;9.950;2022-07-03T11:49:12;28.50;71.30
580;DHT22;276;48.392;9.950;2022-07-03T11:52:03;28.50;72.00
580;DHT22;276;48.392;9.950;2022-07-03T11:54:33;28.60;70.30
580;DHT22;276;48.392;9.950;2022-07-03T11:57:16;28.50;71.00
580;DHT22;276;48.392;9.950;2022-07-03T11:59:44;28.50;72.80
580;DHT22;276;48.392;9.950;2022-07-03T12:02:10;28.60;69.60
580;DHT22;276;48.392;9.950;2022-07-03T12:04:38;28.50;69.20
580;DHT22;276;48.392;9.950;2022-07-03T12:07:03;28.40;69.70
580;DHT22;276;48.392;9.950;2022-07-03T12:09:33;28.40;70.10
580;DHT22;276;48.392;9.950;2022-07-03T12:12:01;28.40;68.80
580;DHT22;276;48.392;9.950;2022-07-03T12:14:44;28.40;68.10
580;DHT22;276;48.392;9.950;2022-07-03T12:19:49;28.30;70.50
580;DHT22;276;48.392;9.950;2022-07-03T12:25:12;28.50;68.40
580;DHT22;276;48.392;9.950;2022-07-03T12:27:42;28.60;66.90
580;DHT22;276;48.392;9.950;2022-07-03T12:30:12;28.60;66.10
580;DHT22;276;48.392;9.950;2022-07-03T12:32:38;28.60;66.30
580;DHT22;276;48.392;9.950;2022-07-03T12:35:05;28.50;65.20
580;DHT22;276;48.392;9.950;2022-07-03T12:37:39;28.40;68.00
580;DHT22;276;48.392;9.950;2022-07-03T12:40:16;28.30;70.10
580;DHT22;276;48.392;9.950;2022-07-03T12:42:48;28.50;69.40
580;DHT22;276;48.392;9.950;2022-07-03T12:45:25;28.50;64.80
580;DHT22;276;48.392;9.950;2022-07-03T12:48:04;28.50;66.20
580;DHT22;276;48.392;9.950;2022-07-03T12:50:46;28.40;67.70
580;DHT22;276;48.392;9.950;2022-07-03T12:53:26;28.60;63.80
580;DHT22;276;48.392;9.950;2022-07-03T12:55:52;28.50;63.80
580;DHT22;276;48.392;9.950;2022-07-03T12:58:25;28.50;65.50
580;DHT22;276;48.392;9.950;2022-07-03T13:01:29;28.40;65.70
580;DHT22;276;48.392;9.950;2022-07-03T13:03:55;28.40;65.80
580;DHT22;276;48.392;9.950;2022-07-03T13:06:24;28.40;64.40
580;DHT22;276;48.392;9.950;2022-07-03T13:09:00;28.40;66.00
580;DHT22;276;48.392;9.950;2022-07-03T13:11:27;28.50;65.10
580;DHT22;276;48.392;9.950;2022-07-03T13:14:14;28.50;65.10
580;DHT22;276;48.392;9.950;2022-07-03T13:16:52;28.60;63.00
580;DHT22;276;48.392;9.950;2022-07-03T13:19:22;28.50;65.30
580;DHT22;276;48.392;9.950;2022-07-03T13:21:50;28.60;64.10
580;DHT22;276;48.392;9.950;2022-07-03T13:24:17;28.60;64.30
580;DHT22;276;48.392;9.950;2022-07-03T13:26:44;28.60;64.80
580;DHT22;276;48.392;9.950;2022-07-03T13:29:10;28.50;65.70
580;DHT22;276;48.392;9.950;2022-07-03T13:31:35;28.50;66.40
580;DHT22;276;48.392;9.950;2022-07-03T13:34:02;28.60;65.70
580;DHT22;276;48.392;9.950;2022-07-03T13:36:33;28.60;66.00
580;DHT22;276;48.392;9.950;2022-07-03T13:39:00;28.70;63.90
580;DHT22;276;48.392;9.950;2022-07-03T13:41:30;28.70;64.20
580;DHT22;276;48.392;9.950;2022-07-03T13:44:00;28.80;65.50
580;DHT22;276;48.392;9.950;2022-07-03T13:46:28;28.80;66.00
580;DHT22;276;48.392;9.950;2022-07-03T13:48:54;28.80;66.20
580;DHT22;276;48.392;9.950;2022-07-03T13:51:20;28.70;67.20
580;DHT22;276;48.392;9.950;2022-07-03T13:53:46;28.80;66.20
580;DHT22;276;48.392;9.950;2022-07-03T13:56:15;28.80;62.70
580;DHT22;276;48.392;9.950;2022-07-03T13:58:40;28.90;62.50
580;DHT22;276;48.392;9.950;2022-07-03T14:01:06;29.00;62.20
580;DHT22;276;48.392;9.950;2022-07-03T14:03:34;29.00;60.70
580;DHT22;276;48.392;9.950;2022-07-03T14:06:02;29.00;60.30
580;DHT22;276;48.392;9.950;2022-07-03T14:08:30;28.80;63.20
580;DHT22;276;48.392;9.950;2022-07-03T14:10:55;28.70;61.60
580;DHT22;276;48.392;9.950;2022-07-03T14:13:21;28.80;61.10
580;DHT22;276;48.392;9.950;2022-07-03T14:15:49;28.60;61.80
580;DHT22;276;48.392;9.950;2022-07-03T14:18:15;28.60;63.10
580;DHT22;276;48.392;9.950;2022-07-03T14:20:45;28.60;63.90
580;DHT22;276;48.392;9.950;2022-07-03T14:23:11;28.50;62.20
580;DHT22;276;48.392;9.950;2022-07-03T14:25:37;28.50;62.00
580;DHT22;276;48.392;9.950;2022-07-03T14:28:03;28.50;63.00
580;DHT22;276;48.392;9.950;2022-07-03T14:30:47;28.60;62.60
580;DHT22;276;48.392;9.950;2022-07-03T14:33:31;28.60;60.70
580;DHT22;276;48.392;9.950;2022-07-03T14:35:59;28.50;61.00
580;DHT22;276;48.392;9.950;2022-07-03T14:38:25;28.40;63.70
580;DHT22;276;48.392;9.950;2022-07-03T14:40:50;28.40;62.10
580;DHT22;276;48.392;9.950;2022-07-03T14:43:19;28.50;63.20
580;DHT22;276;48.392;9.950;2022-07-03T14:45:45;28.50;64.20
580;DHT22;276;48.392;9.950;2022-07-03T14:48:13;28.60;61.70
580;DHT22;276;48.392;9.950;2022-07-03T14:50:39;28.70;61.30
580;DHT22;276;48.392;9.950;2022-07-03T14:53:06;28.70;61.80
580;DHT22;276;48.392;9.950;2022-07-03T14:55:37;28.70;61.20
580;DHT22;276;48.392;9.950;2022-07-03T15:00:49;28.60;64.00
580;DHT22;276;48.392;9.950;2022-07-03T15:03:24;28.60;62.20
580;DHT22;276;48.392;9.950;2022-07-03T15:05:55;28.60;63.60
580;DHT22;276;48.392;9.950;2022-07-03T15:11:02;28.50;63.80
580;DHT22;276;48.392;9.950;2022-07-03T15:13:28;28.50;63.10
580;DHT22;276;48.392;9.950;2022-07-03T15:15:56;28.60;63.90
580;DHT22;276;48.392;9.950;2022-07-03T15:18:22;28.60;64.20
580;DHT22;276;48.392;9.950;2022-07-03T15:20:50;28.70;63.90
580;DHT22;276;48.392;9.950;2022-07-03T15:23:18;28.70;62.00
580;DHT22;276;48.392;9.950;2022-07-03T15:25:45;28.60;62.70
580;DHT22;276;48.392;9.950;2022-07-03T15:28:15;28.60;61.20
580;DHT22;276;48.392;9.950;2022-07-03T15:30:47;28.60;62.90
580;DHT22;276;48.392;9.950;2022-07-03T15:33:14;28.60;65.10
580;DHT22;276;48.392;9.950;2022-07-03T15:35:56;28.60;63.70
580;DHT22;276;48.392;9.950;2022-07-03T15:38:27;28.60;64.50
580;DHT22;276;48.392;9.950;2022-07-03T15:40:57;28.50;62.90
580;DHT22;276;48.392;9.950;2022-07-03T15:49:23;28.50;64.20
580;DHT22;276;48.392;9.950;2022-07-03T15:52:16;28.50;62.80
580;DHT22;276;48.392;9.950;2022-07-03T15:55:08;28.40;64.50
580;DHT22;276;48.392;9.950;2022-07-03T15:57:51;28.40;64.70
580;DHT22;276;48.392;9.950;2022-07-03T16:00:23;28.30;65.00
580;DHT22;276;48.392;9.950;2022-07-03T16:03:26;28.30;65.60
580;DHT22;276;48.392;9.950;2022-07-03T16:05:55;28.30;65.20
580;DHT22;276;48.392;9.950;2022-07-03T16:08:23;28.30;64.30
580;DHT22;276;48.392;9.950;2022-07-03T16:10:51;28.40;63.20
580;DHT22;276;48.392;9.950;2022-07-03T16:13:24;28.30;63.50
580;DHT22;276;48.392;9.950;2022-07-03T16:15:51;28.10;65.30
580;DHT22;276;48.392;9.950;2022-07-03T16:18:24;28.10;65.60
580;DHT22;276;48.392;9.950;2022-07-03T16:20:51;28.00;65.50
580;DHT22;276;48.392;9.950;2022-07-03T16:23:16;28.10;66.90
580;DHT22;276;48.392;9.950;2022-07-03T16:25:42;28.10;67.60
580;DHT22;276;48.392;9.950;2022-07-03T16:28:12;28.10;67.90
580;DHT22;276;48.392;9.950;2022-07-03T16:30:45;28.20;67.30
580;DHT22;276;48.392;9.950;2022-07-03T16:33:12;28.30;66.20
580;DHT22;276;48.392;9.950;2022-07-03T16:35:43;28.20;67.20
580;DHT22;276;48.392;9.950;2022-07-03T16:38:11;28.20;67.00
580;DHT22;276;48.392;9.950;2022-07-03T16:40:44;28.20;67.90
580;DHT22;276;48.392;9.950;2022-07-03T16:43:12;28.30;67.90
580;DHT22;276;48.392;9.950;2022-07-03T16:45:40;28.30;66.80
580;DHT22;276;48.392;9.950;2022-07-03T16:48:12;28.20;67.90
580;DHT22;276;48.392;9.950;2022-07-03T16:50:51;28.20;67.90
580;DHT22;276;48.392;9.950;2022-07-03T16:53:18;28.20;68.10
580;DHT22;276;48.392;9.950;2022-07-03T16:55:46;28.10;69.20
580;DHT22;276;48.392;9.950;2022-07-03T16:58:12;28.10;68.70
580;DHT22;276;48.392;9.950;2022-07-03T17:00:42;28.10;68.30
580;DHT22;276;48.392;9.950;2022-07-03T17:03:09;28.10;69.10
580;DHT22;276;48.392;9.950;2022-07-03T17:05:36;28.00;70.20
580;DHT22;276;48.392;9.950;2022-07-03T17:08:04;27.90;70.70
580;DHT22;276;48.392;9.950;2022-07-03T17:10:32;27.90;70.20
580;DHT22;276;48.392;9.950;2022-07-03T17:12:59;28.00;70.60
580;DHT22;276;48.392;9.950;2022-07-03T17:15:27;27.90;70.90
580;DHT22;276;48.392;9.950;2022-07-03T17:18:05;27.90;71.30
580;DHT22;276;48.392;9.950;2022-07-03T17:20:34;27.90;71.60
580;DHT22;276;48.392;9.950;2022-07-03T17:23:07;27.90;72.30
580;DHT22;276;48.392;9.950;2022-07-03T17:25:43;27.90;71.40
580;DHT22;276;48.392;9.950;2022-07-03T17:28:09;27.90;71.00
580;DHT22;276;48.392;9.950;2022-07-03T17:30:47;27.90;72.00
580;DHT22;276;48.392;9.950;2022-07-03T17:33:17;27.90;72.70
580;DHT22;276;48.392;9.950;2022-07-03T17:35:45;27.80;73.20
580;DHT22;276;48.392;9.950;2022-07-03T17:38:16;27.80;73.20
580;DHT22;276;48.392;9.950;2022-07-03T17:40:48;27.80;73.80
580;DHT22;276;48.392;9.950;2022-07-03T17:43:14;27.80;73.50
580;DHT22;276;48.392;9.950;2022-07-03T17:45:40;27.80;72.40
580;DHT22;276;48.392;9.950;2022-07-03T17:48:08;27.80;73.80
580;DHT22;276;48.392;9.950;2022-07-03T17:50:38;27.70;74.10
580;DHT22;276;48.392;9.950;2022-07-03T17:53:07;27.70;72.90
580;DHT22;276;48.392;9.950;2022-07-03T17:55:33;27.70;73.60
580;DHT22;276;48.392;9.950;2022-07-03T17:58:01;27.70;74.80
580;DHT22;276;48.392;9.950;2022-07-03T18:00:27;27.70;76.70
580;DHT22;276;48.392;9.950;2022-07-03T18:02:55;27.70;76.10
580;DHT22;276;48.392;9.950;2022-07-03T18:05:21;27.70;77.50
580;DHT22;276;48.392;9.950;2022-07-03T18:13:34;27.60;81.60
580;DHT22;276;48.392;9.950;2022-07-03T18:16:10;27.60;82.70
580;DHT22;276;48.392;9.950;2022-07-03T18:18:43;27.50;83.90
580;DHT22;276;48.392;9.950;2022-07-03T18:21:12;27.50;85.60
580;DHT22;276;48.392;9.950;2022-07-03T18:23:49;27.40;86.20
580;DHT22;276;48.392;9.950;2022-07-03T18:26:24;27.30;86.70
580;DHT22;276;48.392;9.950;2022-07-03T18:28:55;27.20;87.40
580;DHT22;276;48.392;9.950;2022-07-03T18:31:22;27.10;87.60
580;DHT22;276;48.392;9.950;2022-07-03T18:33:49;27.10;88.20
580;DHT22;276;48.392;9.950;2022-07-03T18:36:15;27.00;88.30
580;DHT22;276;48.392;9.950;2022-07-03T18:38:41;27.00;88.90
580;DHT22;276;48.392;9.950;2022-07-03T18:41:08;26.90;89.20
580;DHT22;276;48.392;9.950;2022-07-03T18:43:34;26.90;89.60
580;DHT22;276;48.392;9.950;2022-07-03T18:46:00;26.80;90.10
580;DHT22;276;48.392;9.950;2022-07-03T18:48:29;26.70;89.80
580;DHT22;276;48.392;9.950;2022-07-03T18:51:19;26.70;89.10